sensor_id;sensor_type;location;lat;lon;timestamp;temperature;humidity
64654;DHT22;51065;48.884;12.598;2023-06-22T00:01:58;17.30;99.90
64654;DHT22;51065;48.884;12.598;2023-06-22T00:04:24;17.30;99.90
64654;DHT22;51065;48.884;12.598;2023-06-22T00:06:49;17.40;99.90
64654;DHT22;51065;48.884;12.598;2023-06-22T00:09:15;17.40;99.90
64654;DHT22;51065;48.884;12.598;2023-06-22T00:11:40;17.50;99.90
64654;DHT22;51065;48.884;12.598;2023-06-22T00:14:06;17.50;99.90
64654;DHT22;51065;48.884;12.598;2023-06-22T00:16:32;17.60;99.90
64654;DHT22;51065;48.884;12.598;2023-06-22T00:18:58;17.70;99.90
64654;DHT22;51065;48.884;12.598;2023-06-22T00:21:29;17.70;99.90
64654;DHT22;51065;48.884;12.598;2023-06-22T00:23:54;17.70;99.90
64654;DHT22;51065;48.884;12.598;2023-06-22T00:26:21;17.70;99.90
64654;DHT22;51065;48.884;12.598;2023-06-22T00:28:47;17.70;99.90
64654;DHT22;51065;48.884;12.598;2023-06-22T00:31:13;17.70;99.90
64654;DHT22;51065;48.884;12.598;2023-06-22T00:33:38;17.60;99.90
64654;DHT22;51065;48.884;12.598;2023-06-22T00:36:04;17.50;99.90
64654;DHT22;51065;48.884;12.598;2023-06-22T00:38:31;17.40;99.90
64654;DHT22;51065;48.884;12.598;2023-06-22T00:40:57;17.40;99.90
64654;DHT22;51065;48.884;12.598;2023-06-22T00:43:22;17.40;99.90
64654;DHT22;51065;48.884;12.598;2023-06-22T00:45:48;17.40;99.90
64654;DHT22;51065;48.884;12.598;2023-06-22T00:48:14;17.40;99.90
64654;DHT22;51065;48.884;12.598;2023-06-22T00:50:40;17.50;99.90
64654;DHT22;51065;48.884;12.598;2023-06-22T00:53:07;17.50;99.90
64654;DHT22;51065;48.884;12.598;2023-06-22T00:55:37;17.50;99.90
64654;DHT22;51065;48.884;12.598;2023-06-22T00:58:04;17.40;99.90
64654;DHT22;51065;48.884;12.598;2023-06-22T01:00:33;17.40;99.90
64654;DHT22;51065;48.884;12.598;2023-06-22T01:02:59;17.40;99.90
64654;DHT22;51065;48.884;12.598;2023-06-22T01:05:25;17.30;99.90
64654;DHT22;51065;48.884;12.598;2023-06-22T01:08:15;17.30;99.90
64654;DHT22;51065;48.884;12.598;2023-06-22T01:10:52;17.30;99.90
64654;DHT22;51065;48.884;12.598;2023-06-22T01:16:10;17.10;99.90
64654;DHT22;51065;48.884;12.598;2023-06-22T01:18:41;17.10;99.90
64654;DHT22;51065;48.884;12.598;2023-06-22T01:21:09;17.10;99.90
64654;DHT22;51065;48.884;12.598;2023-06-22T01:27:04;17.00;99.90
64654;DHT22;51065;48.884;12.598;2023-06-22T01:29:36;17.00;99.90
64654;DHT22;51065;48.884;12.598;2023-06-22T01:32:03;17.00;99.90
64654;DHT22;51065;48.884;12.598;2023-06-22T01:34:31;17.00;99.90
64654;DHT22;51065;48.884;12.598;2023-06-22T01:36:58;17.00;99.90
64654;DHT22;51065;48.884;12.598;2023-06-22T01:39:24;16.90;99.90
64654;DHT22;51065;48.884;12.598;2023-06-22T01:41:50;16.90;99.90
64654;DHT22;51065;48.884;12.598;2023-06-22T01:44:16;16.90;99.90
64654;DHT22;51065;48.884;12.598;2023-06-22T01:46:43;16.90;99.90
64654;DHT22;51065;48.884;12.598;2023-06-22T01:49:09;16.90;99.90
64654;DHT22;51065;48.884;12.598;2023-06-22T01:51:35;16.90;99.90
64654;DHT22;51065;48.884;12.598;2023-06-22T01:54:01;16.90;99.90
64654;DHT22;51065;48.884;12.598;2023-06-22T01:56:27;17.00;99.90
64654;DHT22;51065;48.884;12.598;2023-06-22T01:59:11;17.00;99.90
64654;DHT22;51065;48.884;12.598;2023-06-22T02:01:47;17.00;99.90
64654;DHT22;51065;48.884;12.598;2023-06-22T02:04:26;17.00;99.90
64654;DHT22;51065;48.884;12.598;2023-06-22T02:06:56;16.90;99.90
64654;DHT22;51065;48.884;12.598;2023-06-22T02:09:24;16.90;99.90
64654;DHT22;51065;48.884;12.598;2023-06-22T02:11:52;16.90;99.90
64654;DHT22;51065;48.884;12.598;2023-06-22T02:14:21;16.90;99.90
64654;DHT22;51065;48.884;12.598;2023-06-22T02:16:47;16.80;99.90
64654;DHT22;51065;48.884;12.598;2023-06-22T02:19:12;16.70;99.90
64654;DHT22;51065;48.884;12.598;2023-06-22T02:21:41;16.70;99.90
64654;DHT22;51065;48.884;12.598;2023-06-22T02:24:06;16.60;99.90
64654;DHT22;51065;48.884;12.598;2023-06-22T02:26:32;16.60;99.90
64654;DHT22;51065;48.884;12.598;2023-06-22T02:28:58;16.60;99.90
64654;DHT22;51065;48.884;12.598;2023-06-22T02:31:23;16.50;99.90
64654;DHT22;51065;48.884;12.598;2023-06-22T02:33:58;16.50;99.90
64654;DHT22;51065;48.884;12.598;2023-06-22T02:36:25;16.50;99.90
64654;DHT22;51065;48.884;12.598;2023-06-22T02:38:52;16.50;99.90
64654;DHT22;51065;48.884;12.598;2023-06-22T02:41:18;16.40;99.90
64654;DHT22;51065;48.884;12.598;2023-06-22T02:43:47;16.40;99.90
64654;DHT22;51065;48.884;12.598;2023-06-22T02:46:13;16.40;99.90
64654;DHT22;51065;48.884;12.598;2023-06-22T02:48:40;16.40;99.90
64654;DHT22;51065;48.884;12.598;2023-06-22T02:51:06;16.30;99.90
64654;DHT22;51065;48.884;12.598;2023-06-22T02:53:32;16.30;99.90
64654;DHT22;51065;48.884;12.598;2023-06-22T02:55:57;16.20;99.90
64654;DHT22;51065;48.884;12.598;2023-06-22T02:58:23;16.20;99.90
64654;DHT22;51065;48.884;12.598;2023-06-22T03:00:49;16.20;99.90
64654;DHT22;51065;48.884;12.598;2023-06-22T03:03:18;16.10;99.90
64654;DHT22;51065;48.884;12.598;2023-06-22T03:05:44;16.10;99.90
64654;DHT22;51065;48.884;12.598;2023-06-22T03:08:09;16.00;99.90
64654;DHT22;51065;48.884;12.598;2023-06-22T03:10:35;16.00;99.90
64654;DHT22;51065;48.884;12.598;2023-06-22T03:13:01;16.00;99.90
64654;DHT22;51065;48.884;12.598;2023-06-22T03:15:26;16.00;99.90
64654;DHT22;51065;48.884;12.598;2023-06-22T03:17:54;16.10;99.90
64654;DHT22;51065;48.884;12.598;2023-06-22T03:20:20;16.10;99.90
64654;DHT22;51065;48.884;12.598;2023-06-22T03:22:45;16.10;99.90
64654;DHT22;51065;48.884;12.598;2023-06-22T03:25:11;16.10;99.90
64654;DHT22;51065;48.884;12.598;2023-06-22T03:27:41;16.10;99.90
64654;DHT22;51065;48.884;12.598;2023-06-22T03:30:08;16.10;99.90
64654;DHT22;51065;48.884;12.598;2023-06-22T03:32:34;16.20;99.90
64654;DHT22;51065;48.884;12.598;2023-06-22T03:35:00;16.30;99.90
64654;DHT22;51065;48.884;12.598;2023-06-22T03:37:28;16.30;99.90
64654;DHT22;51065;48.884;12.598;2023-06-22T03:39:54;16.30;99.90
64654;DHT22;51065;48.884;12.598;2023-06-22T03:42:20;16.30;99.90
64654;DHT22;51065;48.884;12.598;2023-06-22T03:44:46;16.40;99.90
64654;DHT22;51065;48.884;12.598;2023-06-22T03:47:12;16.50;99.90
64654;DHT22;51065;48.884;12.598;2023-06-22T03:49:37;16.50;99.90
64654;DHT22;51065;48.884;12.598;2023-06-22T03:52:03;16.60;99.90
64654;DHT22;51065;48.884;12.598;2023-06-22T03:54:29;16.60;99.90
64654;DHT22;51065;48.884;12.598;2023-06-22T03:56:56;16.80;99.90
64654;DHT22;51065;48.884;12.598;2023-06-22T03:59:22;16.80;99.90
64654;DHT22;51065;48.884;12.598;2023-06-22T04:01:47;16.80;99.90
64654;DHT22;51065;48.884;12.598;2023-06-22T04:04:13;16.90;99.90
64654;DHT22;51065;48.884;12.598;2023-06-22T04:06:39;17.00;99.90
64654;DHT22;51065;48.884;12.598;2023-06-22T04:09:05;17.20;99.90
64654;DHT22;51065;48.884;12.598;2023-06-22T04:11:31;17.30;99.90
64654;DHT22;51065;48.884;12.598;2023-06-22T04:13:56;17.40;99.90
64654;DHT22;51065;48.884;12.598;2023-06-22T04:16:22;17.50;99.90
64654;DHT22;51065;48.884;12.598;2023-06-22T04:18:48;17.70;99.90
64654;DHT22;51065;48.884;12.598;2023-06-22T04:21:13;17.80;99.90
64654;DHT22;51065;48.884;12.598;2023-06-22T04:23:39;18.00;99.90
64654;DHT22;51065;48.884;12.598;2023-06-22T04:26:05;18.20;99.90
64654;DHT22;51065;48.884;12.598;2023-06-22T04:28:30;18.40;99.90
64654;DHT22;51065;48.884;12.598;2023-06-22T04:31:03;18.40;99.90
64654;DHT22;51065;48.884;12.598;2023-06-22T04:33:29;18.60;99.90
64654;DHT22;51065;48.884;12.598;2023-06-22T04:35:58;18.60;99.90
64654;DHT22;51065;48.884;12.598;2023-06-22T04:38:26;18.90;99.90
64654;DHT22;51065;48.884;12.598;2023-06-22T04:40:52;18.90;99.90
64654;DHT22;51065;48.884;12.598;2023-06-22T04:43:19;18.90;99.90
64654;DHT22;51065;48.884;12.598;2023-06-22T04:45:44;19.00;99.90
64654;DHT22;51065;48.884;12.598;2023-06-22T04:48:10;19.40;99.90
64654;DHT22;51065;48.884;12.598;2023-06-22T04:50:41;19.50;99.90
64654;DHT22;51065;48.884;12.598;2023-06-22T04:53:07;20.00;99.90
64654;DHT22;51065;48.884;12.598;2023-06-22T04:55:34;20.20;99.90
64654;DHT22;51065;48.884;12.598;2023-06-22T04:58:03;20.60;99.90
64654;DHT22;51065;48.884;12.598;2023-06-22T05:00:30;20.80;99.90
64654;DHT22;51065;48.884;12.598;2023-06-22T05:02:56;21.20;99.90
64654;DHT22;51065;48.884;12.598;2023-06-22T05:05:23;21.50;99.90
64654;DHT22;51065;48.884;12.598;2023-06-22T05:07:50;21.60;99.90
64654;DHT22;51065;48.884;12.598;2023-06-22T05:10:18;21.50;99.90
64654;DHT22;51065;48.884;12.598;2023-06-22T05:12:44;21.80;99.90
64654;DHT22;51065;48.884;12.598;2023-06-22T05:15:10;21.90;99.90
64654;DHT22;51065;48.884;12.598;2023-06-22T05:17:36;21.90;99.90
64654;DHT22;51065;48.884;12.598;2023-06-22T05:20:02;22.00;99.90
64654;DHT22;51065;48.884;12.598;2023-06-22T05:22:31;22.10;99.90
64654;DHT22;51065;48.884;12.598;2023-06-22T05:24:57;22.30;99.90
64654;DHT22;51065;48.884;12.598;2023-06-22T05:27:22;22.50;99.90
64654;DHT22;51065;48.884;12.598;2023-06-22T05:29:48;22.60;99.90
64654;DHT22;51065;48.884;12.598;2023-06-22T05:32:13;22.70;99.90
64654;DHT22;51065;48.884;12.598;2023-06-22T05:34:39;22.60;99.90
64654;DHT22;51065;48.884;12.598;2023-06-22T05:37:05;22.80;99.90
64654;DHT22;51065;48.884;12.598;2023-06-22T05:39:31;23.00;99.90
64654;DHT22;51065;48.884;12.598;2023-06-22T05:41:57;23.00;99.90
64654;DHT22;51065;48.884;12.598;2023-06-22T05:44:22;23.10;99.90
64654;DHT22;51065;48.884;12.598;2023-06-22T05:46:48;23.10;99.90
64654;DHT22;51065;48.884;12.598;2023-06-22T05:49:14;23.30;99.90
64654;DHT22;51065;48.884;12.598;2023-06-22T05:51:40;23.60;99.90
64654;DHT22;51065;48.884;12.598;2023-06-22T05:54:06;23.70;99.90
64654;DHT22;51065;48.884;12.598;2023-06-22T05:56:33;23.80;99.90
64654;DHT22;51065;48.884;12.598;2023-06-22T05:58:58;24.10;99.90
64654;DHT22;51065;48.884;12.598;2023-06-22T06:01:24;24.50;99.90
64654;DHT22;51065;48.884;12.598;2023-06-22T06:03:51;24.70;99.90
64654;DHT22;51065;48.884;12.598;2023-06-22T06:06:18;24.50;99.90
64654;DHT22;51065;48.884;12.598;2023-06-22T06:08:43;24.60;99.90
64654;DHT22;51065;48.884;12.598;2023-06-22T06:11:09;24.80;99.90
64654;DHT22;51065;48.884;12.598;2023-06-22T06:13:34;25.00;99.90
64654;DHT22;51065;48.884;12.598;2023-06-22T06:16:00;25.30;99.90
64654;DHT22;51065;48.884;12.598;2023-06-22T06:18:26;25.20;99.90
64654;DHT22;51065;48.884;12.598;2023-06-22T06:20:51;25.50;99.90
64654;DHT22;51065;48.884;12.598;2023-06-22T06:23:17;25.40;99.90
64654;DHT22;51065;48.884;12.598;2023-06-22T06:25:43;25.60;99.90
64654;DHT22;51065;48.884;12.598;2023-06-22T06:28:08;25.70;99.90
64654;DHT22;51065;48.884;12.598;2023-06-22T06:30:34;25.90;99.90
64654;DHT22;51065;48.884;12.598;2023-06-22T06:33:02;26.20;99.90
64654;DHT22;51065;48.884;12.598;2023-06-22T06:35:28;26.70;99.90
64654;DHT22;51065;48.884;12.598;2023-06-22T06:37:53;27.10;99.90
64654;DHT22;51065;48.884;12.598;2023-06-22T06:40:19;27.40;99.90
64654;DHT22;51065;48.884;12.598;2023-06-22T06:42:48;27.80;99.90
64654;DHT22;51065;48.884;12.598;2023-06-22T06:45:20;28.00;99.90
64654;DHT22;51065;48.884;12.598;2023-06-22T06:47:48;28.20;99.90
64654;DHT22;51065;48.884;12.598;2023-06-22T06:50:13;28.40;99.90
64654;DHT22;51065;48.884;12.598;2023-06-22T06:52:39;28.40;99.90
64654;DHT22;51065;48.884;12.598;2023-06-22T06:55:05;28.60;98.10
64654;DHT22;51065;48.884;12.598;2023-06-22T06:57:34;28.60;99.90
64654;DHT22;51065;48.884;12.598;2023-06-22T07:00:00;27.90;99.50
64654;DHT22;51065;48.884;12.598;2023-06-22T07:02:26;27.80;99.90
64654;DHT22;51065;48.884;12.598;2023-06-22T07:04:53;27.90;99.90
64654;DHT22;51065;48.884;12.598;2023-06-22T07:07:21;28.20;99.90
64654;DHT22;51065;48.884;12.598;2023-06-22T07:09:47;28.30;97.60
64654;DHT22;51065;48.884;12.598;2023-06-22T07:12:12;28.70;96.50
64654;DHT22;51065;48.884;12.598;2023-06-22T07:14:38;28.80;98.80
64654;DHT22;51065;48.884;12.598;2023-06-22T07:17:04;29.50;93.50
64654;DHT22;51065;48.884;12.598;2023-06-22T07:19:29;29.60;91.60
64654;DHT22;51065;48.884;12.598;2023-06-22T07:21:56;29.80;86.70
64654;DHT22;51065;48.884;12.598;2023-06-22T07:24:22;29.90;93.00
64654;DHT22;51065;48.884;12.598;2023-06-22T07:26:48;30.40;74.20
64654;DHT22;51065;48.884;12.598;2023-06-22T07:29:18;30.90;76.40
64654;DHT22;51065;48.884;12.598;2023-06-22T07:31:46;31.00;72.20
64654;DHT22;51065;48.884;12.598;2023-06-22T07:34:12;31.40;72.50
64654;DHT22;51065;48.884;12.598;2023-06-22T07:36:40;31.30;71.70
64654;DHT22;51065;48.884;12.598;2023-06-22T07:39:06;31.60;80.70
64654;DHT22;51065;48.884;12.598;2023-06-22T07:41:32;32.00;68.80
64654;DHT22;51065;48.884;12.598;2023-06-22T07:43:57;32.20;71.30
64654;DHT22;51065;48.884;12.598;2023-06-22T07:46:23;32.30;63.10
64654;DHT22;51065;48.884;12.598;2023-06-22T07:48:49;32.20;60.30
64654;DHT22;51065;48.884;12.598;2023-06-22T07:51:14;32.00;64.20
64654;DHT22;51065;48.884;12.598;2023-06-22T07:53:41;31.90;62.70
64654;DHT22;51065;48.884;12.598;2023-06-22T07:56:07;32.10;66.80
64654;DHT22;51065;48.884;12.598;2023-06-22T07:58:32;32.00;61.00
64654;DHT22;51065;48.884;12.598;2023-06-22T08:00:58;32.50;57.10
64654;DHT22;51065;48.884;12.598;2023-06-22T08:03:24;32.40;61.20
64654;DHT22;51065;48.884;12.598;2023-06-22T08:05:49;32.00;63.60
64654;DHT22;51065;48.884;12.598;2023-06-22T08:08:15;32.70;61.80
64654;DHT22;51065;48.884;12.598;2023-06-22T08:10:42;32.10;65.30
64654;DHT22;51065;48.884;12.598;2023-06-22T08:13:08;32.50;60.50
64654;DHT22;51065;48.884;12.598;2023-06-22T08:15:33;32.60;57.30
64654;DHT22;51065;48.884;12.598;2023-06-22T08:17:59;32.70;59.40
64654;DHT22;51065;48.884;12.598;2023-06-22T08:20:26;33.00;55.30
64654;DHT22;51065;48.884;12.598;2023-06-22T08:22:54;33.20;58.10
64654;DHT22;51065;48.884;12.598;2023-06-22T08:25:20;33.70;59.00
64654;DHT22;51065;48.884;12.598;2023-06-22T08:27:47;33.90;56.30
64654;DHT22;51065;48.884;12.598;2023-06-22T08:30:13;34.20;54.40
64654;DHT22;51065;48.884;12.598;2023-06-22T08:32:39;34.10;51.70
64654;DHT22;51065;48.884;12.598;2023-06-22T08:35:05;33.20;59.40
64654;DHT22;51065;48.884;12.598;2023-06-22T08:37:33;33.60;55.60
64654;DHT22;51065;48.884;12.598;2023-06-22T08:40:02;33.40;59.60
64654;DHT22;51065;48.884;12.598;2023-06-22T08:42:29;33.40;57.00
64654;DHT22;51065;48.884;12.598;2023-06-22T08:44:55;33.90;56.00
64654;DHT22;51065;48.884;12.598;2023-06-22T08:47:21;33.60;60.00
64654;DHT22;51065;48.884;12.598;2023-06-22T08:49:47;33.80;57.60
64654;DHT22;51065;48.884;12.598;2023-06-22T08:52:12;34.40;60.30
64654;DHT22;51065;48.884;12.598;2023-06-22T08:54:38;34.40;58.70
64654;DHT22;51065;48.884;12.598;2023-06-22T08:57:04;34.50;55.40
64654;DHT22;51065;48.884;12.598;2023-06-22T08:59:29;34.60;56.80
64654;DHT22;51065;48.884;12.598;2023-06-22T09:01:55;33.90;55.90
64654;DHT22;51065;48.884;12.598;2023-06-22T09:04:20;33.40;59.80
64654;DHT22;51065;48.884;12.598;2023-06-22T09:06:49;33.90;57.50
64654;DHT22;51065;48.884;12.598;2023-06-22T09:09:16;33.90;60.70
64654;DHT22;51065;48.884;12.598;2023-06-22T09:11:42;33.90;58.30
64654;DHT22;51065;48.884;12.598;2023-06-22T09:14:08;34.40;56.40
64654;DHT22;51065;48.884;12.598;2023-06-22T09:16:34;34.70;56.00
64654;DHT22;51065;48.884;12.598;2023-06-22T09:18:59;34.70;58.40
64654;DHT22;51065;48.884;12.598;2023-06-22T09:21:25;34.30;61.00
64654;DHT22;51065;48.884;12.598;2023-06-22T09:23:51;34.70;58.80
64654;DHT22;51065;48.884;12.598;2023-06-22T09:26:18;34.60;54.00
64654;DHT22;51065;48.884;12.598;2023-06-22T09:28:44;35.00;52.70
64654;DHT22;51065;48.884;12.598;2023-06-22T09:31:10;34.40;56.60
64654;DHT22;51065;48.884;12.598;2023-06-22T09:33:36;34.80;57.50
64654;DHT22;51065;48.884;12.598;2023-06-22T09:36:01;34.90;58.70
64654;DHT22;51065;48.884;12.598;2023-06-22T09:38:27;34.60;54.70
64654;DHT22;51065;48.884;12.598;2023-06-22T09:40:52;34.90;53.30
64654;DHT22;51065;48.884;12.598;2023-06-22T09:43:18;34.40;52.70
64654;DHT22;51065;48.884;12.598;2023-06-22T09:45:44;34.50;56.80
64654;DHT22;51065;48.884;12.598;2023-06-22T09:48:09;35.00;55.30
64654;DHT22;51065;48.884;12.598;2023-06-22T09:50:37;34.80;54.10
64654;DHT22;51065;48.884;12.598;2023-06-22T09:53:03;34.70;54.40
64654;DHT22;51065;48.884;12.598;2023-06-22T09:55:28;34.60;54.00
64654;DHT22;51065;48.884;12.598;2023-06-22T09:57:54;35.50;52.40
64654;DHT22;51065;48.884;12.598;2023-06-22T10:00:21;35.50;52.50
64654;DHT22;51065;48.884;12.598;2023-06-22T10:02:47;35.10;52.90
64654;DHT22;51065;48.884;12.598;2023-06-22T10:05:13;35.20;50.60
64654;DHT22;51065;48.884;12.598;2023-06-22T10:07:39;35.20;51.60
64654;DHT22;51065;48.884;12.598;2023-06-22T10:10:08;35.20;53.00
64654;DHT22;51065;48.884;12.598;2023-06-22T10:12:34;35.60;54.40
64654;DHT22;51065;48.884;12.598;2023-06-22T10:15:00;35.70;50.40
64654;DHT22;51065;48.884;12.598;2023-06-22T10:17:25;35.50;51.30
64654;DHT22;51065;48.884;12.598;2023-06-22T10:19:51;35.40;50.00
64654;DHT22;51065;48.884;12.598;2023-06-22T10:22:16;35.60;51.20
64654;DHT22;51065;48.884;12.598;2023-06-22T10:24:42;35.70;48.50
64654;DHT22;51065;48.884;12.598;2023-06-22T10:27:11;35.90;48.20
64654;DHT22;51065;48.884;12.598;2023-06-22T10:29:37;35.00;48.20
64654;DHT22;51065;48.884;12.598;2023-06-22T10:32:03;34.40;49.20
64654;DHT22;51065;48.884;12.598;2023-06-22T10:34:29;34.70;51.40
64654;DHT22;51065;48.884;12.598;2023-06-22T10:36:54;34.80;53.40
64654;DHT22;51065;48.884;12.598;2023-06-22T10:39:20;34.90;54.40
64654;DHT22;51065;48.884;12.598;2023-06-22T10:41:45;35.20;49.60
64654;DHT22;51065;48.884;12.598;2023-06-22T10:44:11;35.20;47.10
64654;DHT22;51065;48.884;12.598;2023-06-22T10:46:37;35.40;47.60
64654;DHT22;51065;48.884;12.598;2023-06-22T10:49:03;35.30;48.00
64654;DHT22;51065;48.884;12.598;2023-06-22T10:51:28;35.00;50.00
64654;DHT22;51065;48.884;12.598;2023-06-22T10:53:54;34.90;53.50
64654;DHT22;51065;48.884;12.598;2023-06-22T10:56:19;35.50;49.40
64654;DHT22;51065;48.884;12.598;2023-06-22T10:58:45;35.80;46.70
64654;DHT22;51065;48.884;12.598;2023-06-22T11:01:11;36.00;46.60
64654;DHT22;51065;48.884;12.598;2023-06-22T11:03:37;35.40;47.40
64654;DHT22;51065;48.884;12.598;2023-06-22T11:06:03;35.30;49.30
64654;DHT22;51065;48.884;12.598;2023-06-22T11:08:28;35.90;47.80
64654;DHT22;51065;48.884;12.598;2023-06-22T11:10:54;36.60;47.90
64654;DHT22;51065;48.884;12.598;2023-06-22T11:13:19;36.40;45.30
64654;DHT22;51065;48.884;12.598;2023-06-22T11:15:45;36.60;45.70
64654;DHT22;51065;48.884;12.598;2023-06-22T11:18:10;36.40;45.80
64654;DHT22;51065;48.884;12.598;2023-06-22T11:20:36;36.40;46.10
64654;DHT22;51065;48.884;12.598;2023-06-22T11:23:07;36.00;47.90
64654;DHT22;51065;48.884;12.598;2023-06-22T11:25:33;36.10;47.80
64654;DHT22;51065;48.884;12.598;2023-06-22T11:28:02;36.50;49.70
64654;DHT22;51065;48.884;12.598;2023-06-22T11:30:28;36.90;44.80
64654;DHT22;51065;48.884;12.598;2023-06-22T11:32:53;36.70;44.30
64654;DHT22;51065;48.884;12.598;2023-06-22T11:35:19;36.60;45.60
64654;DHT22;51065;48.884;12.598;2023-06-22T11:37:44;36.60;45.70
64654;DHT22;51065;48.884;12.598;2023-06-22T11:40:10;36.40;44.00
64654;DHT22;51065;48.884;12.598;2023-06-22T11:42:36;36.40;45.30
64654;DHT22;51065;48.884;12.598;2023-06-22T11:45:04;36.00;44.40
64654;DHT22;51065;48.884;12.598;2023-06-22T11:47:30;36.00;45.70
64654;DHT22;51065;48.884;12.598;2023-06-22T11:49:55;36.10;47.10
64654;DHT22;51065;48.884;12.598;2023-06-22T11:52:21;36.40;47.60
64654;DHT22;51065;48.884;12.598;2023-06-22T11:54:46;36.70;43.50
64654;DHT22;51065;48.884;12.598;2023-06-22T11:57:12;36.20;44.60
64654;DHT22;51065;48.884;12.598;2023-06-22T11:59:38;36.10;45.50
64654;DHT22;51065;48.884;12.598;2023-06-22T12:02:03;35.50;49.00
64654;DHT22;51065;48.884;12.598;2023-06-22T12:04:31;36.10;45.40
64654;DHT22;51065;48.884;12.598;2023-06-22T12:06:56;35.70;47.50
64654;DHT22;51065;48.884;12.598;2023-06-22T12:09:22;36.70;45.90
64654;DHT22;51065;48.884;12.598;2023-06-22T12:11:47;37.20;45.80
64654;DHT22;51065;48.884;12.598;2023-06-22T12:14:13;37.20;45.30
64654;DHT22;51065;48.884;12.598;2023-06-22T12:16:38;36.90;44.70
64654;DHT22;51065;48.884;12.598;2023-06-22T12:19:04;37.00;46.20
64654;DHT22;51065;48.884;12.598;2023-06-22T12:21:29;36.90;45.90
64654;DHT22;51065;48.884;12.598;2023-06-22T12:23:55;36.60;49.40
64654;DHT22;51065;48.884;12.598;2023-06-22T12:26:21;36.10;46.20
64654;DHT22;51065;48.884;12.598;2023-06-22T12:28:47;35.60;47.10
64654;DHT22;51065;48.884;12.598;2023-06-22T12:31:14;35.20;49.00
64654;DHT22;51065;48.884;12.598;2023-06-22T12:33:39;35.30;49.60
64654;DHT22;51065;48.884;12.598;2023-06-22T12:36:05;35.20;49.40
64654;DHT22;51065;48.884;12.598;2023-06-22T12:38:30;35.30;48.40
64654;DHT22;51065;48.884;12.598;2023-06-22T12:40:56;35.40;47.20
64654;DHT22;51065;48.884;12.598;2023-06-22T12:43:21;35.40;47.90
64654;DHT22;51065;48.884;12.598;2023-06-22T12:45:47;35.90;47.50
64654;DHT22;51065;48.884;12.598;2023-06-22T12:48:12;36.40;45.90
64654;DHT22;51065;48.884;12.598;2023-06-22T12:50:38;35.80;47.30
64654;DHT22;51065;48.884;12.598;2023-06-22T12:53:04;36.10;45.00
64654;DHT22;51065;48.884;12.598;2023-06-22T12:55:31;36.40;45.20
64654;DHT22;51065;48.884;12.598;2023-06-22T12:57:57;36.50;44.90
64654;DHT22;51065;48.884;12.598;2023-06-22T13:00:23;36.70;44.50
64654;DHT22;51065;48.884;12.598;2023-06-22T13:02:48;36.20;45.00
64654;DHT22;51065;48.884;12.598;2023-06-22T13:05:14;36.20;45.20
64654;DHT22;51065;48.884;12.598;2023-06-22T13:07:40;36.60;46.20
64654;DHT22;51065;48.884;12.598;2023-06-22T13:10:07;36.40;44.20
64654;DHT22;51065;48.884;12.598;2023-06-22T13:12:32;36.20;46.80
64654;DHT22;51065;48.884;12.598;2023-06-22T13:14:58;36.80;44.40
64654;DHT22;51065;48.884;12.598;2023-06-22T13:17:24;37.00;43.20
64654;DHT22;51065;48.884;12.598;2023-06-22T13:19:49;37.20;44.10
64654;DHT22;51065;48.884;12.598;2023-06-22T13:22:30;37.10;43.40
64654;DHT22;51065;48.884;12.598;2023-06-22T13:24:57;37.10;43.50
64654;DHT22;51065;48.884;12.598;2023-06-22T13:27:23;37.10;43.40
64654;DHT22;51065;48.884;12.598;2023-06-22T13:29:49;36.80;43.70
64654;DHT22;51065;48.884;12.598;2023-06-22T13:32:14;36.30;44.00
64654;DHT22;51065;48.884;12.598;2023-06-22T13:34:40;36.40;42.90
64654;DHT22;51065;48.884;12.598;2023-06-22T13:37:05;36.50;45.10
64654;DHT22;51065;48.884;12.598;2023-06-22T13:39:31;36.60;44.30
64654;DHT22;51065;48.884;12.598;2023-06-22T13:41:57;36.70;44.10
64654;DHT22;51065;48.884;12.598;2023-06-22T13:44:23;36.80;42.20
64654;DHT22;51065;48.884;12.598;2023-06-22T13:46:53;36.80;43.30
64654;DHT22;51065;48.884;12.598;2023-06-22T13:49:18;36.80;44.00
64654;DHT22;51065;48.884;12.598;2023-06-22T13:51:44;36.40;45.40
64654;DHT22;51065;48.884;12.598;2023-06-22T13:54:09;36.50;45.00
64654;DHT22;51065;48.884;12.598;2023-06-22T13:56:35;36.60;43.60
64654;DHT22;51065;48.884;12.598;2023-06-22T13:59:01;36.80;45.30
64654;DHT22;51065;48.884;12.598;2023-06-22T14:01:26;36.80;43.50
64654;DHT22;51065;48.884;12.598;2023-06-22T14:03:52;36.90;43.00
64654;DHT22;51065;48.884;12.598;2023-06-22T14:06:17;36.60;44.60
64654;DHT22;51065;48.884;12.598;2023-06-22T14:08:43;36.80;43.50
64654;DHT22;51065;48.884;12.598;2023-06-22T14:11:09;36.70;43.70
64654;DHT22;51065;48.884;12.598;2023-06-22T14:13:35;36.50;44.70
64654;DHT22;51065;48.884;12.598;2023-06-22T14:16:01;36.20;44.80
64654;DHT22;51065;48.884;12.598;2023-06-22T14:18:27;36.40;45.80
64654;DHT22;51065;48.884;12.598;2023-06-22T14:20:52;36.80;45.80
64654;DHT22;51065;48.884;12.598;2023-06-22T14:23:18;36.80;44.50
64654;DHT22;51065;48.884;12.598;2023-06-22T14:25:43;36.80;45.60
64654;DHT22;51065;48.884;12.598;2023-06-22T14:28:09;36.80;44.50
64654;DHT22;51065;48.884;12.598;2023-06-22T14:30:34;37.20;43.50
64654;DHT22;51065;48.884;12.598;2023-06-22T14:33:00;37.20;41.80
64654;DHT22;51065;48.884;12.598;2023-06-22T14:35:25;37.00;43.50
64654;DHT22;51065;48.884;12.598;2023-06-22T14:37:51;36.60;45.00
64654;DHT22;51065;48.884;12.598;2023-06-22T14:40:16;36.60;45.50
64654;DHT22;51065;48.884;12.598;2023-06-22T14:42:42;36.80;45.00
64654;DHT22;51065;48.884;12.598;2023-06-22T14:45:08;37.10;43.70
64654;DHT22;51065;48.884;12.598;2023-06-22T14:47:33;37.10;43.20
64654;DHT22;51065;48.884;12.598;2023-06-22T14:49:59;36.90;43.00
64654;DHT22;51065;48.884;12.598;2023-06-22T14:52:26;36.80;41.90
64654;DHT22;51065;48.884;12.598;2023-06-22T14:54:52;36.90;42.50
64654;DHT22;51065;48.884;12.598;2023-06-22T14:57:18;36.60;43.50
64654;DHT22;51065;48.884;12.598;2023-06-22T14:59:46;36.90;42.90
64654;DHT22;51065;48.884;12.598;2023-06-22T15:02:12;36.90;44.20
64654;DHT22;51065;48.884;12.598;2023-06-22T15:04:38;36.70;44.20
64654;DHT22;51065;48.884;12.598;2023-06-22T15:07:03;36.70;47.90
64654;DHT22;51065;48.884;12.598;2023-06-22T15:09:29;36.80;47.00
64654;DHT22;51065;48.884;12.598;2023-06-22T15:11:55;37.40;45.40
64654;DHT22;51065;48.884;12.598;2023-06-22T15:14:20;38.10;41.40
64654;DHT22;51065;48.884;12.598;2023-06-22T15:16:46;38.20;40.50